createdAt,value
2017-09-01T00:00:01.635Z,9.07
2017-09-01T00:02:30.068Z,9.02
2017-09-01T00:04:58.457Z,9.02
2017-09-01T00:07:26.851Z,9.17
2017-09-01T00:09:55.185Z,9.10
2017-09-01T00:12:23.637Z,8.97
2017-09-01T00:14:52.018Z,8.91
2017-09-01T00:17:20.367Z,9.07
2017-09-01T00:19:48.706Z,9.09
2017-09-01T00:22:17.073Z,9.06
2017-09-01T00:24:45.496Z,8.93
2017-09-01T00:27:13.878Z,8.81
2017-09-01T00:29:42.271Z,8.72
2017-09-01T00:32:10.658Z,8.60
2017-09-01T00:34:39.031Z,8.50
2017-09-01T00:37:07.403Z,8.95
2017-09-01T00:39:35.759Z,9.00
2017-09-01T00:42:04.156Z,8.81
2017-09-01T00:44:32.482Z,8.52
2017-09-01T00:47:00.832Z,8.44
2017-09-01T00:49:29.207Z,8.23
2017-09-01T00:51:57.586Z,8.16
2017-09-01T00:54:25.974Z,8.56
2017-09-01T00:56:54.310Z,8.46
2017-09-01T00:59:22.654Z,8.30
2017-09-01T01:01:51.079Z,8.21
2017-09-01T01:04:19.537Z,8.35
2017-09-01T01:06:47.936Z,8.41
2017-09-01T01:09:16.332Z,8.14
2017-09-01T01:11:44.666Z,7.93
2017-09-01T01:14:13.015Z,7.86
2017-09-01T01:16:41.494Z,8.06
2017-09-01T01:19:09.834Z,8.38
2017-09-01T01:21:38.170Z,8.66
2017-09-01T01:24:06.514Z,8.32
2017-09-01T01:26:34.967Z,8.06
2017-09-01T01:29:03.355Z,7.76
2017-09-01T01:31:31.751Z,7.63
2017-09-01T01:34:00.146Z,7.57
2017-09-01T01:36:28.485Z,7.69
2017-09-01T01:38:56.830Z,7.57
2017-09-01T01:41:25.310Z,7.50
2017-09-01T01:43:53.698Z,7.55
2017-09-01T01:46:22.095Z,7.93
2017-09-01T01:48:50.435Z,8.15
2017-09-01T01:51:18.882Z,7.86
2017-09-01T01:53:47.251Z,7.60
2017-09-01T01:56:15.670Z,7.48
2017-09-01T01:58:44.027Z,7.56
2017-09-01T02:01:12.376Z,7.98
2017-09-01T02:03:40.841Z,8.22
2017-09-01T02:06:09.235Z,8.44
2017-09-01T02:08:37.643Z,8.24
2017-09-01T02:11:06.035Z,7.86
2017-09-01T02:13:34.396Z,7.62
2017-09-01T02:16:02.736Z,7.46
2017-09-01T02:18:31.177Z,7.25
2017-09-01T02:20:59.548Z,7.23
2017-09-01T02:23:27.928Z,7.79
2017-09-01T02:25:56.355Z,7.82
2017-09-01T02:28:24.718Z,7.50
2017-09-01T02:30:53.067Z,7.37
2017-09-01T02:33:21.422Z,7.50
2017-09-01T02:35:50.165Z,7.38
2017-09-01T02:38:18.673Z,7.29
2017-09-01T02:40:47.127Z,7.16
2017-09-01T02:43:15.507Z,7.02
2017-09-01T02:45:43.890Z,7.05
2017-09-01T02:48:12.290Z,6.93
2017-09-01T02:50:40.680Z,6.92
2017-09-01T02:53:09.055Z,6.82
2017-09-01T02:55:37.392Z,6.75
2017-09-01T02:58:05.770Z,6.98
2017-09-01T03:00:34.158Z,6.91
2017-09-01T03:03:02.494Z,6.81
2017-09-01T03:05:30.922Z,6.80
2017-09-01T03:07:59.310Z,7.00
2017-09-01T03:10:27.659Z,7.44
2017-09-01T03:12:56.089Z,7.73
2017-09-01T03:15:24.522Z,7.64
2017-09-01T03:17:52.889Z,7.50
2017-09-01T03:20:21.271Z,7.73
2017-09-01T03:22:49.662Z,7.90
2017-09-01T03:25:18.049Z,7.88
2017-09-01T03:27:46.394Z,7.95
2017-09-01T03:30:14.830Z,7.46
2017-09-01T03:32:43.185Z,7.21
2017-09-01T03:35:11.523Z,6.92
2017-09-01T03:37:39.930Z,6.77
2017-09-01T03:40:08.294Z,6.94
2017-09-01T03:42:36.638Z,7.29
2017-09-01T03:45:04.983Z,7.40
2017-09-01T03:47:33.379Z,7.37
2017-09-01T03:50:01.766Z,7.17
2017-09-01T03:52:30.126Z,6.89
2017-09-01T03:54:58.462Z,6.93
2017-09-01T03:57:26.830Z,7.00
2017-09-01T03:59:55.170Z,7.17
2017-09-01T04:02:23.614Z,6.95
2017-09-01T04:04:52.006Z,6.78
2017-09-01T04:07:20.378Z,6.57
2017-09-01T04:09:48.789Z,6.63
2017-09-01T04:12:17.162Z,7.14
2017-09-01T04:14:45.531Z,7.11
2017-09-01T04:17:13.898Z,6.85
2017-09-01T04:19:42.234Z,6.88
2017-09-01T04:22:10.751Z,6.65
2017-09-01T04:24:39.139Z,6.76
2017-09-01T04:27:07.525Z,6.79
2017-09-01T04:29:35.860Z,6.86
2017-09-01T04:32:04.197Z,6.60
2017-09-01T04:34:32.547Z,6.43
2017-09-01T04:37:00.986Z,6.88
2017-09-01T04:39:29.365Z,6.85
2017-09-01T04:41:57.715Z,6.60
2017-09-01T04:44:26.076Z,6.46
2017-09-01T04:46:54.414Z,6.44
2017-09-01T04:49:22.853Z,6.88
2017-09-01T04:51:51.182Z,6.81
2017-09-01T04:54:19.626Z,6.67
2017-09-01T04:56:48.014Z,7.08
2017-09-01T04:59:16.415Z,6.70
2017-09-01T05:01:44.787Z,6.61
2017-09-01T05:04:13.154Z,6.60
2017-09-01T05:06:41.616Z,6.87
2017-09-01T05:09:09.948Z,7.36
2017-09-01T05:11:38.298Z,7.18
2017-09-01T05:14:06.726Z,7.03
2017-09-01T05:16:35.250Z,7.35
2017-09-01T05:19:03.642Z,7.16
2017-09-01T05:21:32.042Z,7.48
2017-09-01T05:24:00.423Z,7.08
2017-09-01T05:26:28.806Z,7.24
2017-09-01T05:28:57.220Z,7.42
2017-09-01T05:31:25.621Z,7.65
2017-09-01T05:33:54.024Z,7.74
2017-09-01T05:36:22.382Z,7.64
2017-09-01T05:38:50.727Z,7.37
2017-09-01T05:41:19.196Z,7.18
2017-09-01T05:43:47.659Z,7.35
2017-09-01T05:46:16.042Z,7.30
2017-09-01T05:48:44.375Z,7.34
2017-09-01T05:51:12.759Z,7.37
2017-09-01T05:53:41.222Z,7.51
2017-09-01T05:56:09.562Z,7.71
2017-09-01T05:58:37.907Z,7.79
2017-09-01T06:01:06.247Z,7.96
2017-09-01T06:03:34.682Z,8.11
2017-09-01T06:06:03.022Z,8.18
2017-09-01T06:08:31.363Z,8.37
2017-09-01T06:10:59.702Z,8.27
2017-09-01T06:13:28.076Z,8.46
2017-09-01T06:15:56.410Z,8.54
2017-09-01T06:18:25.243Z,9.16
2017-09-01T06:20:53.580Z,10.69
2017-09-01T06:23:21.947Z,11.14
2017-09-01T06:25:50.282Z,12.57
2017-09-01T06:28:18.627Z,13.48
2017-09-01T06:30:46.985Z,14.49
2017-09-01T06:33:15.382Z,14.99
2017-09-01T06:35:43.766Z,14.84
2017-09-01T06:38:12.097Z,14.58
2017-09-01T06:40:40.455Z,14.27
2017-09-01T06:43:08.817Z,15.07
2017-09-01T06:45:37.232Z,14.64
2017-09-01T06:48:05.635Z,15.60
2017-09-01T06:50:34.007Z,15.34
2017-09-01T06:53:02.401Z,16.07
2017-09-01T06:55:30.745Z,17.06
2017-09-01T06:57:59.119Z,17.70
2017-09-01T07:00:27.478Z,17.45
2017-09-01T07:02:55.869Z,17.82
2017-09-01T07:05:24.233Z,17.91
2017-09-01T07:07:52.646Z,18.75
2017-09-01T07:10:21.001Z,19.85
2017-09-01T07:12:49.439Z,20.20
2017-09-01T07:15:17.797Z,20.89
2017-09-01T07:17:46.135Z,21.62
2017-09-01T07:20:14.641Z,22.21
2017-09-01T07:22:43.004Z,22.50
2017-09-01T07:25:11.339Z,22.04
2017-09-01T07:27:39.781Z,20.37
2017-09-01T07:30:08.114Z,21.70
2017-09-01T07:32:36.458Z,21.26
2017-09-01T07:35:04.823Z,21.97
2017-09-01T07:37:33.168Z,21.78
2017-09-01T07:40:01.531Z,21.38
2017-09-01T07:42:29.861Z,23.36
2017-09-01T07:44:58.222Z,23.53
2017-09-01T07:47:26.557Z,22.13
2017-09-01T07:49:54.899Z,21.59
2017-09-01T07:52:23.253Z,20.63
2017-09-01T07:54:51.586Z,21.26
2017-09-01T07:57:19.961Z,22.46
2017-09-01T07:59:48.359Z,22.85
2017-09-01T08:02:16.694Z,23.36
2017-09-01T08:04:45.031Z,22.94
2017-09-01T08:07:13.442Z,23.68
2017-09-01T08:09:41.825Z,22.97
2017-09-01T08:12:10.215Z,23.24
2017-09-01T08:14:38.541Z,22.69
2017-09-01T08:17:06.923Z,23.61
2017-09-01T08:19:35.307Z,24.41
2017-09-01T08:22:03.639Z,24.96
2017-09-01T08:24:31.997Z,24.91
2017-09-01T08:27:00.324Z,25.10
2017-09-01T08:29:28.661Z,26.24
2017-09-01T08:31:56.995Z,26.11
2017-09-01T08:34:25.431Z,26.39
2017-09-01T08:36:53.761Z,25.78
2017-09-01T08:39:22.117Z,25.92
2017-09-01T08:41:50.455Z,25.84
2017-09-01T08:44:18.889Z,24.78
2017-09-01T08:46:47.283Z,25.92
2017-09-01T08:49:15.612Z,25.87
2017-09-01T08:51:44.067Z,26.65
2017-09-01T08:54:12.675Z,26.94
2017-09-01T08:56:41.155Z,25.86
2017-09-01T08:59:09.502Z,24.36
2017-09-01T09:01:37.937Z,24.10
2017-09-01T09:04:06.332Z,22.55
2017-09-01T09:06:34.722Z,23.45
2017-09-01T09:09:03.058Z,23.55
2017-09-01T09:11:31.427Z,23.37
2017-09-01T09:13:59.765Z,23.91
2017-09-01T09:16:28.190Z,24.56
2017-09-01T09:18:56.576Z,23.87
2017-09-01T09:21:24.919Z,23.68
2017-09-01T09:23:53.278Z,23.28
2017-09-01T09:26:21.635Z,23.67
2017-09-01T09:28:50.141Z,23.90
2017-09-01T09:31:18.482Z,23.57
2017-09-01T09:33:46.815Z,23.15
2017-09-01T09:36:15.242Z,22.90
2017-09-01T09:38:43.633Z,22.92
2017-09-01T09:41:12.007Z,24.29
2017-09-01T09:43:40.382Z,23.21
2017-09-01T09:46:08.745Z,23.17
2017-09-01T09:48:37.082Z,23.44
2017-09-01T09:51:05.425Z,24.37
2017-09-01T09:53:33.777Z,24.74
2017-09-01T09:56:02.363Z,23.73
2017-09-01T09:58:30.735Z,22.90
2017-09-01T10:00:59.082Z,23.34
2017-09-01T10:03:27.414Z,23.95
2017-09-01T10:05:55.754Z,24.62
2017-09-01T10:08:24.099Z,24.15
2017-09-01T10:10:52.475Z,24.44
2017-09-01T10:13:20.813Z,22.97
2017-09-01T10:15:49.176Z,22.97
2017-09-01T10:18:17.544Z,22.36
2017-09-01T10:20:45.907Z,22.10
2017-09-01T10:23:14.260Z,21.98
2017-09-01T10:25:42.577Z,22.10
2017-09-01T10:28:10.943Z,21.32
2017-09-01T10:30:39.282Z,22.26
2017-09-01T10:33:07.614Z,22.27
2017-09-01T10:35:35.970Z,22.52
2017-09-01T10:38:04.299Z,21.14
2017-09-01T10:40:32.662Z,21.96
2017-09-01T10:43:01.398Z,21.73
2017-09-01T10:45:29.758Z,21.97
2017-09-01T10:48:09.886Z,22.29
2017-09-01T10:50:49.759Z,22.62
2017-09-01T10:53:29.707Z,22.30
2017-09-01T10:56:09.640Z,21.43
2017-09-01T10:58:38.006Z,21.40
2017-09-01T11:01:06.339Z,21.55
2017-09-01T11:03:34.711Z,20.87
2017-09-01T11:06:03.074Z,20.93
2017-09-01T11:08:31.440Z,20.23
2017-09-01T11:10:59.779Z,20.24
2017-09-01T11:13:28.155Z,22.09
2017-09-01T11:15:56.490Z,24.19
2017-09-01T11:18:24.843Z,22.92
2017-09-01T11:21:07.422Z,22.89
2017-09-01T11:23:41.236Z,22.01
2017-09-01T11:26:09.565Z,21.19
2017-09-01T11:28:37.899Z,21.12
2017-09-01T11:31:06.274Z,20.43
2017-09-01T11:33:34.603Z,19.58
2017-09-01T11:36:02.935Z,19.17
2017-09-01T11:38:31.278Z,19.32
2017-09-01T11:40:59.615Z,19.53
2017-09-01T11:43:28.375Z,19.64
2017-09-01T11:45:56.706Z,20.27
2017-09-01T11:48:25.029Z,20.49
2017-09-01T11:50:53.382Z,21.08
2017-09-01T11:53:21.768Z,20.64
2017-09-01T11:55:50.098Z,20.38
2017-09-01T11:58:18.439Z,20.78
2017-09-01T12:00:46.774Z,20.46
2017-09-01T12:03:15.101Z,20.65
2017-09-01T12:05:43.458Z,21.05
2017-09-01T12:08:11.786Z,20.46
2017-09-01T12:10:40.118Z,20.89
2017-09-01T12:13:08.458Z,20.19
2017-09-01T12:15:37.083Z,19.88
2017-09-01T12:18:05.414Z,19.89
2017-09-01T12:20:33.780Z,20.02
2017-09-01T12:23:02.123Z,20.03
2017-09-01T12:25:30.462Z,20.34
2017-09-01T12:27:58.834Z,20.50
2017-09-01T12:30:27.174Z,20.39
2017-09-01T12:32:55.565Z,20.09
2017-09-01T12:35:23.910Z,20.44
2017-09-01T12:37:52.259Z,20.05
2017-09-01T12:40:20.598Z,20.91
2017-09-01T12:42:48.936Z,20.42
2017-09-01T12:45:17.278Z,20.46
2017-09-01T12:47:45.640Z,20.26
2017-09-01T12:50:14.005Z,20.24
2017-09-01T12:52:42.334Z,20.01
2017-09-01T12:55:10.670Z,20.10
2017-09-01T12:57:39.034Z,19.94
2017-09-01T13:00:07.376Z,20.63
2017-09-01T13:02:35.738Z,20.14
2017-09-01T13:05:04.075Z,20.13
2017-09-01T13:07:32.407Z,20.20
2017-09-01T13:10:00.766Z,19.79
2017-09-01T13:12:29.102Z,19.83
2017-09-01T13:14:57.445Z,19.60
2017-09-01T13:17:25.810Z,19.38
2017-09-01T13:19:54.142Z,19.26
2017-09-01T13:22:22.518Z,18.81
2017-09-01T13:24:50.864Z,19.00
2017-09-01T13:27:19.198Z,18.80
2017-09-01T13:29:47.564Z,18.43
2017-09-01T13:32:15.914Z,18.43
2017-09-01T13:34:44.238Z,18.22
2017-09-01T13:37:12.583Z,18.36
2017-09-01T13:39:40.951Z,18.46
2017-09-01T13:42:09.284Z,18.22
2017-09-01T13:44:37.617Z,18.00
2017-09-01T13:47:05.963Z,18.02
2017-09-01T13:49:34.294Z,17.89
2017-09-01T13:52:02.678Z,17.84
2017-09-01T13:54:31.006Z,17.88
2017-09-01T13:56:59.375Z,18.00
2017-09-01T13:59:27.714Z,17.96
2017-09-01T14:01:56.047Z,17.77
2017-09-01T14:04:24.407Z,17.63
2017-09-01T14:06:52.762Z,17.73
2017-09-01T14:09:21.119Z,18.20
2017-09-01T14:11:49.463Z,18.08
2017-09-01T14:14:17.787Z,17.98
2017-09-01T14:16:46.118Z,17.72
2017-09-01T14:19:14.462Z,17.98
2017-09-01T14:21:42.831Z,17.64
2017-09-01T14:24:11.175Z,17.49
2017-09-01T14:26:39.502Z,17.85
2017-09-01T14:29:07.838Z,17.88
2017-09-01T14:31:36.915Z,17.55
2017-09-01T14:34:05.246Z,17.57
2017-09-01T14:36:33.586Z,17.45
2017-09-01T14:39:02.050Z,17.82
2017-09-01T14:41:30.387Z,17.50
2017-09-01T14:43:58.732Z,17.40
2017-09-01T14:46:27.062Z,17.45
2017-09-01T14:48:55.456Z,17.31
2017-09-01T14:51:23.795Z,17.24
2017-09-01T14:53:52.128Z,17.14
2017-09-01T14:56:20.508Z,17.03
2017-09-01T14:58:48.847Z,17.01
2017-09-01T15:01:17.514Z,17.03
2017-09-01T15:03:45.855Z,16.95
2017-09-01T15:06:14.217Z,16.97
2017-09-01T15:08:42.567Z,16.88
2017-09-01T15:11:10.998Z,16.62
2017-09-01T15:13:39.366Z,16.55
2017-09-01T15:16:07.708Z,16.74
2017-09-01T15:18:36.046Z,16.80
2017-09-01T15:21:04.383Z,16.70
2017-09-01T15:23:32.725Z,16.62
2017-09-01T15:26:01.082Z,16.81
2017-09-01T15:28:29.428Z,16.66
2017-09-01T15:30:57.790Z,16.64
2017-09-01T15:33:26.123Z,16.78
2017-09-01T15:35:54.457Z,16.70
2017-09-01T15:38:22.822Z,16.58
2017-09-01T15:40:51.158Z,16.82
2017-09-01T15:43:19.499Z,16.53
2017-09-01T15:45:47.832Z,16.39
2017-09-01T15:48:16.162Z,16.49
2017-09-01T15:50:44.534Z,16.31
2017-09-01T15:53:12.867Z,16.33
2017-09-01T15:55:41.235Z,16.38
2017-09-01T15:58:09.575Z,16.49
2017-09-01T16:00:37.905Z,16.41
2017-09-01T16:03:06.239Z,16.51
2017-09-01T16:05:34.586Z,16.48
2017-09-01T16:08:03.058Z,16.44
2017-09-01T16:10:31.407Z,16.30
2017-09-01T16:12:59.751Z,16.12
2017-09-01T16:15:28.092Z,16.32
2017-09-01T16:17:56.427Z,16.17
2017-09-01T16:20:24.765Z,16.08
2017-09-01T16:22:53.118Z,16.16
2017-09-01T16:25:21.455Z,16.09
2017-09-01T16:27:49.799Z,15.89
2017-09-01T16:30:18.138Z,15.99
2017-09-01T16:32:46.528Z,16.09
2017-09-01T16:35:14.858Z,16.22
2017-09-01T16:37:43.204Z,15.91
2017-09-01T16:40:11.542Z,15.95
2017-09-01T16:42:39.878Z,15.85
2017-09-01T16:45:08.219Z,15.77
2017-09-01T16:47:36.554Z,15.64
2017-09-01T16:50:04.923Z,15.48
2017-09-01T16:52:33.258Z,15.26
2017-09-01T16:55:01.590Z,15.22
2017-09-01T16:57:29.934Z,15.25
2017-09-01T16:59:58.294Z,15.08
2017-09-01T17:02:26.683Z,15.04
2017-09-01T17:04:55.014Z,15.22
2017-09-01T17:07:23.355Z,15.02
2017-09-01T17:09:51.699Z,15.02
2017-09-01T17:12:20.058Z,14.99
2017-09-01T17:14:48.430Z,15.23
2017-09-01T17:17:16.773Z,15.20
2017-09-01T17:19:45.138Z,14.97
2017-09-01T17:22:13.485Z,14.85
2017-09-01T17:24:41.883Z,14.78
2017-09-01T17:27:10.245Z,14.68
2017-09-01T17:29:38.615Z,14.62
2017-09-01T17:32:06.953Z,14.48
2017-09-01T17:34:35.289Z,14.23
2017-09-01T17:37:03.635Z,14.08
2017-09-01T17:39:31.981Z,13.96
2017-09-01T17:42:00.320Z,13.88
2017-09-01T17:44:28.666Z,13.88
2017-09-01T17:46:57.003Z,13.84
2017-09-01T17:49:25.387Z,13.85
2017-09-01T17:51:53.726Z,13.99
2017-09-01T17:54:22.089Z,13.95
2017-09-01T17:56:50.480Z,14.01
2017-09-01T17:59:18.862Z,13.93
2017-09-01T18:01:47.206Z,13.86
2017-09-01T18:04:15.637Z,13.80
2017-09-01T18:06:44.002Z,13.77
2017-09-01T18:09:12.430Z,13.73
2017-09-01T18:11:40.822Z,13.66
2017-09-01T18:14:09.215Z,13.78
2017-09-01T18:16:37.555Z,13.62
2017-09-01T18:19:06.005Z,13.46
2017-09-01T18:21:34.383Z,13.40
2017-09-01T18:24:02.729Z,13.48
2017-09-01T18:26:31.132Z,13.46
2017-09-01T18:28:59.553Z,13.39
2017-09-01T18:31:27.917Z,13.26
2017-09-01T18:33:56.259Z,13.13
2017-09-01T18:36:24.635Z,13.06
2017-09-01T18:38:52.969Z,13.13
2017-09-01T18:41:21.315Z,13.11
2017-09-01T18:43:49.687Z,13.09
2017-09-01T18:46:18.038Z,13.17
2017-09-01T18:48:46.387Z,13.14
2017-09-01T18:51:14.779Z,13.26
2017-09-01T18:53:43.116Z,13.36
2017-09-01T18:56:11.576Z,13.36
2017-09-01T18:58:39.902Z,13.37
2017-09-01T19:01:08.575Z,13.32
2017-09-01T19:03:36.906Z,13.27
2017-09-01T19:06:05.246Z,13.20
2017-09-01T19:08:33.619Z,13.24
2017-09-01T19:11:01.979Z,13.37
2017-09-01T19:13:30.390Z,13.24
2017-09-01T19:15:58.731Z,13.44
2017-09-01T19:18:27.106Z,13.35
2017-09-01T19:20:55.474Z,13.28
2017-09-01T19:23:23.850Z,13.34
2017-09-01T19:25:53.347Z,13.39
2017-09-01T19:28:21.762Z,13.34
2017-09-01T19:30:50.193Z,13.34
2017-09-01T19:33:18.526Z,13.22
2017-09-01T19:35:46.874Z,13.25
2017-09-01T19:38:15.333Z,13.13
2017-09-01T19:40:43.674Z,12.99
2017-09-01T19:43:12.109Z,12.94
2017-09-01T19:45:40.451Z,12.98
2017-09-01T19:48:08.795Z,13.04
2017-09-01T19:50:37.322Z,13.06
2017-09-01T19:53:05.720Z,13.03
2017-09-01T19:55:34.054Z,13.16
2017-09-01T19:58:02.394Z,13.21
2017-09-01T20:00:30.754Z,13.14
2017-09-01T20:02:59.174Z,13.15
2017-09-01T20:05:27.536Z,13.23
2017-09-01T20:07:56.249Z,13.07
2017-09-01T20:10:24.726Z,12.98
2017-09-01T20:12:53.075Z,12.94
2017-09-01T20:15:21.452Z,12.84
2017-09-01T20:17:49.830Z,12.79
2017-09-01T20:20:18.222Z,12.69
2017-09-01T20:22:46.598Z,12.59
2017-09-01T20:25:17.972Z,12.62
2017-09-01T20:27:49.275Z,12.74
2017-09-01T20:30:20.388Z,12.81
2017-09-01T20:32:52.023Z,12.79
2017-09-01T20:35:22.466Z,12.71
2017-09-01T20:37:56.706Z,12.68
2017-09-01T20:40:28.618Z,12.64
2017-09-01T20:43:08.871Z,12.76
2017-09-01T20:45:42.662Z,12.80
2017-09-01T20:48:15.997Z,12.81
2017-09-01T20:50:46.928Z,12.79
2017-09-01T20:53:19.129Z,12.58
2017-09-01T20:55:51.004Z,12.59
2017-09-01T20:58:21.241Z,12.53
2017-09-01T21:00:53.385Z,12.50
2017-09-01T21:03:26.803Z,12.40
2017-09-01T21:05:58.945Z,12.47
2017-09-01T21:08:31.630Z,12.53
2017-09-01T21:11:09.048Z,12.49
2017-09-01T21:13:46.556Z,12.37
2017-09-01T21:16:17.883Z,12.47
2017-09-01T21:18:50.273Z,12.65
2017-09-01T21:21:22.535Z,12.74
2017-09-01T21:23:55.709Z,12.63
2017-09-01T21:26:31.681Z,12.56
2017-09-01T21:29:00.946Z,12.73
2017-09-01T21:31:29.387Z,12.60
2017-09-01T21:33:59.219Z,12.46
2017-09-01T21:36:28.720Z,12.34
2017-09-01T21:38:59.868Z,12.34
2017-09-01T21:41:31.483Z,12.45
2017-09-01T21:44:00.915Z,12.68
2017-09-01T21:46:29.294Z,12.52
2017-09-01T21:48:58.966Z,12.50
2017-09-01T21:51:27.669Z,12.51
2017-09-01T21:53:56.010Z,12.41
2017-09-01T21:56:24.491Z,12.48
2017-09-01T21:58:53.666Z,12.42
2017-09-01T22:01:32.907Z,12.41
2017-09-01T22:04:01.827Z,12.30
2017-09-01T22:06:30.215Z,12.30
2017-09-01T22:08:58.607Z,12.17
2017-09-01T22:11:26.950Z,12.10
2017-09-01T22:13:55.287Z,12.13
2017-09-01T22:16:24.299Z,12.09
2017-09-01T22:18:52.630Z,12.04
2017-09-01T22:21:21.203Z,12.03
2017-09-01T22:23:49.665Z,12.05
2017-09-01T22:26:18.057Z,12.01
2017-09-01T22:28:46.415Z,12.09
2017-09-01T22:31:15.248Z,12.13
2017-09-01T22:33:44.733Z,12.19
2017-09-01T22:36:14.014Z,12.17
2017-09-01T22:38:42.475Z,12.11
2017-09-01T22:41:10.824Z,12.10
2017-09-01T22:43:39.259Z,12.05
2017-09-01T22:46:07.607Z,12.10
2017-09-01T22:48:35.945Z,12.07
2017-09-01T22:51:04.421Z,12.07
2017-09-01T22:53:32.767Z,12.04
2017-09-01T22:56:01.211Z,11.89
2017-09-01T22:58:29.558Z,11.77
2017-09-01T23:00:57.996Z,11.79
2017-09-01T23:03:26.423Z,11.85
2017-09-01T23:05:54.769Z,11.79
2017-09-01T23:08:23.178Z,11.74
2017-09-01T23:10:51.555Z,11.66
2017-09-01T23:13:19.906Z,11.60
2017-09-01T23:15:48.341Z,11.60
2017-09-01T23:18:16.714Z,11.57
2017-09-01T23:20:45.126Z,11.51
2017-09-01T23:23:13.514Z,11.45
2017-09-01T23:25:41.919Z,11.39
2017-09-01T23:28:10.258Z,11.47
2017-09-01T23:30:38.694Z,11.49
2017-09-01T23:33:07.046Z,11.73
2017-09-01T23:35:35.473Z,11.72
2017-09-01T23:38:03.809Z,11.70
2017-09-01T23:40:32.167Z,11.80
2017-09-01T23:43:00.551Z,11.70
2017-09-01T23:45:28.899Z,11.83
2017-09-01T23:47:57.257Z,11.91
2017-09-01T23:50:25.715Z,11.94
2017-09-01T23:52:54.114Z,11.82
2017-09-01T23:55:22.470Z,11.77
2017-09-01T23:57:50.895Z,11.76
